createdAt,value
2023-05-08T00:02:03.001Z,101962.03
2023-05-08T00:04:36.607Z,101967.94
2023-05-08T00:07:04.935Z,101954.72
2023-05-08T00:09:33.220Z,101956.81
2023-05-08T00:12:01.529Z,101955.13
2023-05-08T00:14:29.672Z,101957.44
2023-05-08T00:16:59.332Z,101949.25
2023-05-08T00:19:27.489Z,101945.91
2023-05-08T00:21:55.539Z,101944.47
2023-05-08T00:24:23.594Z,101945.72
2023-05-08T00:26:51.822Z,101946.56
2023-05-08T00:29:19.934Z,101948.66
2023-05-08T00:31:47.977Z,101952.44
2023-05-08T00:34:17.703Z,101938.59
2023-05-08T00:36:45.731Z,101937.97
2023-05-08T00:39:14.150Z,101937.78
2023-05-08T00:41:42.427Z,101934.66
2023-05-08T00:44:10.766Z,101929.81
2023-05-08T00:46:39.227Z,101931.31
2023-05-08T00:49:35.672Z,101927.75
2023-05-08T00:52:08.519Z,101922.72
2023-05-08T00:54:37.381Z,101926.91
2023-05-08T00:57:07.800Z,101933.88
2023-05-08T00:59:37.024Z,101923.56
2023-05-08T01:02:06.061Z,101928.63
2023-05-08T01:04:36.388Z,101929.88
2023-05-08T01:07:04.610Z,101927.78
2023-05-08T01:09:32.954Z,101926.13
2023-05-08T01:12:09.534Z,101918.78
2023-05-08T01:14:51.106Z,101917.72
2023-05-08T01:17:25.919Z,101925.25
2023-05-08T01:20:10.640Z,101916.03
2023-05-08T01:23:01.674Z,101920.03
2023-05-08T01:26:08.549Z,101924.44
2023-05-08T01:29:09.742Z,101924.00
2023-05-08T01:31:51.668Z,101917.28
2023-05-08T01:34:26.008Z,101914.16
2023-05-08T01:36:59.497Z,101917.28
2023-05-08T01:39:36.137Z,101915.19
2023-05-08T01:42:09.256Z,101913.50
2023-05-08T01:44:42.866Z,101916.63
2023-05-08T01:47:16.506Z,101918.97
2023-05-08T01:49:51.756Z,101921.88
2023-05-08T01:52:30.900Z,101918.72
2023-05-08T01:55:02.878Z,101911.19
2023-05-08T01:57:34.491Z,101920.59
2023-05-08T02:00:05.355Z,101919.34
2023-05-08T02:02:38.659Z,101934.00
2023-05-08T02:05:11.971Z,101923.53
2023-05-08T02:07:42.204Z,101923.94
2023-05-08T02:10:12.652Z,101930.63
2023-05-08T02:12:42.363Z,101922.88
2023-05-08T02:15:13.787Z,101924.13
2023-05-08T02:17:43.213Z,101928.94
2023-05-08T02:20:16.961Z,101931.25
2023-05-08T02:22:46.997Z,101933.31
2023-05-08T02:25:17.199Z,101930.19
2023-05-08T02:27:49.976Z,101928.50
2023-05-08T02:30:20.417Z,101941.50
2023-05-08T02:32:51.085Z,101933.50
2023-05-08T02:35:21.289Z,101927.63
2023-05-08T02:37:53.479Z,101935.16
2023-05-08T02:40:25.537Z,101927.41
2023-05-08T02:43:43.340Z,101926.16
2023-05-08T02:46:16.862Z,101924.88
2023-05-08T02:48:52.379Z,101923.19
2023-05-08T02:51:31.229Z,101917.53
2023-05-08T02:54:10.511Z,101934.03
2023-05-08T02:56:56.684Z,101926.50
2023-05-08T02:59:33.644Z,101916.00
2023-05-08T03:02:23.518Z,101914.75
2023-05-08T03:04:57.333Z,101912.44
2023-05-08T03:08:21.048Z,101916.56
2023-05-08T03:10:59.002Z,101911.50
2023-05-08T03:13:45.182Z,101919.03
2023-05-08T03:16:29.803Z,101921.13
2023-05-08T03:19:15.598Z,101914.41
2023-05-08T03:21:59.100Z,101910.19
2023-05-08T03:24:46.659Z,101915.84
2023-05-08T03:27:19.341Z,101902.66
2023-05-08T03:29:48.765Z,101910.19
2023-05-08T03:33:03.041Z,101905.75
2023-05-08T03:35:58.365Z,101903.44
2023-05-08T03:38:37.148Z,101908.88
2023-05-08T03:41:21.892Z,101911.00
2023-05-08T03:46:59.755Z,101908.44
2023-05-08T03:50:00.194Z,101906.97
2023-05-08T03:52:34.113Z,101899.00
2023-05-08T03:55:07.812Z,101907.38
2023-05-08T03:57:52.475Z,101895.00
2023-05-08T04:00:54.431Z,101898.97
2023-05-08T04:08:19.913Z,101894.97
2023-05-08T04:11:10.426Z,101894.34
2023-05-08T04:14:03.607Z,101892.84
2023-05-08T04:16:58.192Z,101892.03
2023-05-08T04:19:45.282Z,101888.66
2023-05-08T04:22:37.965Z,101893.03
2023-05-08T04:25:34.424Z,101892.22
2023-05-08T04:28:54.223Z,101886.97
2023-05-08T04:32:38.845Z,101883.22
2023-05-08T04:36:09.849Z,101902.91
2023-05-08T04:46:13.414Z,101894.78
2023-05-08T04:50:10.709Z,101895.41
2023-05-08T04:53:53.302Z,101890.41
2023-05-08T04:57:02.796Z,101892.09
2023-05-08T05:09:15.357Z,101895.09
2023-05-08T05:19:44.150Z,101905.41
2023-05-08T05:23:08.100Z,101906.34
2023-05-08T05:26:19.423Z,101906.16
2023-05-08T05:34:11.273Z,101907.50
2023-05-08T05:37:05.509Z,101912.31
2023-05-08T05:40:09.868Z,101910.88
2023-05-08T05:46:51.005Z,101916.78
2023-05-08T05:49:47.658Z,101920.56
2023-05-08T05:53:09.443Z,101924.56
2023-05-08T05:55:46.912Z,101920.56
2023-05-08T05:58:58.831Z,101920.19
2023-05-08T06:01:37.146Z,101922.06
2023-05-08T06:04:09.564Z,101925.44
2023-05-08T06:06:37.841Z,101925.25
2023-05-08T06:09:07.508Z,101925.63
2023-05-08T06:12:00.040Z,101933.00
2023-05-08T06:14:43.434Z,101925.25
2023-05-08T06:17:22.521Z,101934.88
2023-05-08T06:19:56.096Z,101935.31
2023-05-08T06:22:25.797Z,101943.72
2023-05-08T06:25:03.110Z,101947.28
2023-05-08T06:28:22.673Z,101951.69
2023-05-08T06:30:51.475Z,101938.06
2023-05-08T06:33:30.614Z,101945.63
2023-05-08T06:36:06.129Z,101945.84
2023-05-08T06:38:34.428Z,101947.09
2023-05-08T06:41:05.129Z,101950.03
2023-05-08T06:43:33.476Z,101952.97
2023-05-08T06:46:07.048Z,101952.09
2023-05-08T06:48:40.136Z,101954.19
2023-05-08T06:54:27.477Z,101956.28
2023-05-08T06:56:55.704Z,101961.91
2023-05-08T06:59:24.414Z,101959.81
2023-05-08T07:01:52.488Z,101959.56
2023-05-08T07:04:21.925Z,101961.25
2023-05-08T07:06:50.044Z,101968.59
2023-05-08T07:09:19.886Z,101969.63
2023-05-08T07:11:48.143Z,101960.84
2023-05-08T07:14:16.247Z,101973.47
2023-05-08T07:17:09.969Z,101966.06
2023-05-08T07:19:39.729Z,101972.94
2023-05-08T07:22:07.866Z,101977.78
2023-05-08T07:24:35.861Z,101968.31
2023-05-08T07:27:03.830Z,101967.44
2023-05-08T07:29:57.508Z,101974.19
2023-05-08T07:32:25.597Z,101976.31
2023-05-08T07:34:54.893Z,101971.59
2023-05-08T07:37:24.015Z,101963.56
2023-05-08T07:39:51.949Z,101954.28
2023-05-08T07:42:19.912Z,101961.00
2023-05-08T07:44:54.434Z,101959.50
2023-05-08T07:47:23.444Z,101956.09
2023-05-08T07:49:51.614Z,101957.38
2023-05-08T07:52:20.929Z,101958.47
2023-05-08T07:54:48.933Z,101958.47
2023-05-08T07:57:17.108Z,101954.72
2023-05-08T07:59:45.161Z,101958.75
2023-05-08T08:02:13.207Z,101955.97
2023-05-08T08:04:41.162Z,101961.88
2023-05-08T08:07:09.082Z,101957.69
2023-05-08T08:09:38.421Z,101956.19
2023-05-08T08:12:06.580Z,101957.34
2023-05-08T08:14:34.462Z,101948.50
2023-05-08T08:17:02.561Z,101953.16
2023-05-08T08:19:30.599Z,101952.53
2023-05-08T08:21:58.558Z,101949.72
2023-05-08T08:24:26.628Z,101955.38
2023-05-08T08:26:55.977Z,101955.63
2023-05-08T08:29:24.308Z,101957.22
2023-05-08T08:31:52.412Z,101955.97
2023-05-08T08:34:20.363Z,101947.50
2023-05-08T08:36:48.624Z,101949.19
2023-05-08T08:39:17.135Z,101945.00
2023-05-08T08:41:45.122Z,101949.00
2023-05-08T08:44:14.462Z,101947.16
2023-05-08T08:46:50.899Z,101933.28
2023-05-08T08:49:20.173Z,101938.69
2023-05-08T08:51:52.299Z,101927.31
2023-05-08T08:54:24.363Z,101936.13
2023-05-08T08:56:54.352Z,101929.94
2023-05-08T08:59:26.822Z,101923.94
2023-05-08T09:01:57.566Z,101933.13
2023-05-08T09:04:27.328Z,101921.34
2023-05-08T09:06:55.700Z,101917.06
2023-05-08T09:09:24.286Z,101912.19
2023-05-08T09:11:53.514Z,101915.25
2023-05-08T09:14:25.826Z,101916.34
2023-05-08T09:16:54.888Z,101917.44
2023-05-08T09:19:25.621Z,101922.97
2023-05-08T09:21:55.752Z,101917.75
2023-05-08T09:24:24.611Z,101913.84
2023-05-08T09:26:52.518Z,101917.19
2023-05-08T09:29:22.223Z,101909.19
2023-05-08T09:31:53.418Z,101917.81
2023-05-08T09:34:27.149Z,101918.06
2023-05-08T09:36:56.314Z,101921.38
2023-05-08T09:39:25.857Z,101927.28
2023-05-08T09:42:00.944Z,101925.13
2023-05-08T09:44:29.077Z,101920.94
2023-05-08T09:47:12.869Z,101914.84
2023-05-08T09:49:41.244Z,101917.91
2023-05-08T09:52:09.596Z,101917.75
2023-05-08T09:54:37.583Z,101914.81
2023-05-08T09:57:13.235Z,101921.28
2023-05-08T09:59:41.433Z,101915.72
2023-05-08T10:02:16.286Z,101916.47
2023-05-08T10:04:44.448Z,101914.66
2023-05-08T10:07:12.438Z,101906.75
2023-05-08T10:09:50.175Z,101907.81
2023-05-08T10:12:19.672Z,101909.53
2023-05-08T10:14:47.657Z,101902.78
2023-05-08T10:17:26.196Z,101902.31
2023-05-08T10:19:59.233Z,101898.13
2023-05-08T10:22:28.576Z,101893.97
2023-05-08T10:24:58.553Z,101891.84
2023-05-08T10:27:35.031Z,101892.66
2023-05-08T10:30:05.284Z,101879.53
2023-05-08T10:32:40.643Z,101879.16
2023-05-08T10:35:11.714Z,101873.88
2023-05-08T10:37:42.255Z,101875.13
2023-05-08T10:40:12.098Z,101863.63
2023-05-08T10:42:41.047Z,101861.34
2023-05-08T10:45:10.727Z,101862.88
2023-05-08T10:47:49.663Z,101872.53
2023-05-08T10:50:48.405Z,101871.63
2023-05-08T10:53:21.682Z,101857.94
2023-05-08T10:55:52.907Z,101871.50
2023-05-08T10:58:31.378Z,101863.56
2023-05-08T11:01:13.757Z,101859.00
2023-05-08T11:03:46.078Z,101857.00
2023-05-08T11:06:15.529Z,101865.53
2023-05-08T11:08:51.578Z,101858.38
2023-05-08T11:11:31.521Z,101865.81
2023-05-08T11:14:10.765Z,101854.88
2023-05-08T11:17:08.205Z,101863.34
2023-05-08T11:19:38.675Z,101865.16
2023-05-08T11:22:29.032Z,101848.94
2023-05-08T11:25:02.479Z,101847.72
2023-05-08T11:28:04.124Z,101845.31
2023-05-08T11:30:57.522Z,101849.81
2023-05-08T11:33:31.490Z,101853.22
2023-05-08T11:36:02.312Z,101851.56
2023-05-08T11:38:35.976Z,101860.09
2023-05-08T11:41:06.323Z,101856.56
2023-05-08T11:44:14.867Z,101864.50
2023-05-08T11:46:46.222Z,101864.16
2023-05-08T11:49:17.282Z,101860.94
2023-05-08T11:51:49.756Z,101862.84
2023-05-08T11:54:19.745Z,101868.44
2023-05-08T11:56:51.131Z,101866.59
2023-05-08T11:59:19.378Z,101870.38
2023-05-08T12:02:06.804Z,101865.06
2023-05-08T12:05:04.538Z,101872.13
2023-05-08T12:07:34.163Z,101863.56
2023-05-08T12:10:02.733Z,101866.97
2023-05-08T12:12:40.271Z,101864.84
2023-05-08T12:15:09.534Z,101873.25
2023-05-08T12:17:38.223Z,101882.56
2023-05-08T12:20:14.690Z,101873.50
2023-05-08T12:22:51.642Z,101878.53
2023-05-08T12:25:20.588Z,101872.81
2023-05-08T12:28:14.384Z,101870.50
2023-05-08T12:30:42.470Z,101851.50
2023-05-08T12:33:11.957Z,101835.50
2023-05-08T12:35:40.351Z,101839.69
2023-05-08T12:38:10.760Z,101850.91
2023-05-08T12:40:42.685Z,101866.13
2023-05-08T12:43:11.486Z,101861.28
2023-05-08T12:45:40.447Z,101865.81
2023-05-08T12:48:09.955Z,101857.69
2023-05-08T12:50:40.120Z,101856.53
2023-05-08T12:53:11.185Z,101848.03
2023-05-08T12:56:30.175Z,101845.06
2023-05-08T12:59:00.693Z,101849.72
2023-05-08T13:01:28.854Z,101834.22
2023-05-08T13:04:02.110Z,101837.06
2023-05-08T13:06:30.450Z,101840.44
2023-05-08T13:08:59.783Z,101839.38
2023-05-08T13:11:33.085Z,101837.66
2023-05-08T13:14:01.232Z,101837.63
2023-05-08T13:16:29.425Z,101838.06
2023-05-08T13:18:57.384Z,101832.06
2023-05-08T13:21:27.626Z,101827.81
2023-05-08T13:23:56.909Z,101822.97
2023-05-08T13:26:26.474Z,101828.28
2023-05-08T13:28:56.404Z,101835.88
2023-05-08T13:31:24.800Z,101829.56
2023-05-08T13:33:52.808Z,101836.03
2023-05-08T13:36:21.033Z,101828.34
2023-05-08T13:38:49.000Z,101815.28
2023-05-08T13:41:16.929Z,101812.28
2023-05-08T13:43:46.287Z,101801.50
2023-05-08T13:46:14.563Z,101803.66
2023-05-08T13:48:42.535Z,101805.22
2023-05-08T13:51:10.494Z,101808.06
2023-05-08T13:53:38.419Z,101817.03
2023-05-08T13:56:06.729Z,101812.97
2023-05-08T13:58:34.787Z,101815.03
2023-05-08T14:01:17.719Z,101795.22
2023-05-08T14:03:52.272Z,101797.59
2023-05-08T14:06:20.583Z,101801.31
2023-05-08T14:08:51.096Z,101801.44
2023-05-08T14:11:20.850Z,101792.75
2023-05-08T14:13:48.802Z,101797.34
2023-05-08T14:16:18.184Z,101774.13
2023-05-08T14:18:46.169Z,101766.69
2023-05-08T14:21:14.130Z,101759.63
2023-05-08T14:23:42.755Z,101756.31
2023-05-08T14:26:10.667Z,101764.81
2023-05-08T14:28:38.632Z,101766.59
2023-05-08T14:31:06.825Z,101754.72
2023-05-08T14:33:36.790Z,101758.09
2023-05-08T14:36:04.937Z,101758.66
2023-05-08T14:38:32.949Z,101757.19
2023-05-08T14:41:04.246Z,101757.56
2023-05-08T14:43:32.821Z,101758.66
2023-05-08T14:46:01.037Z,101754.41
2023-05-08T14:48:29.061Z,101741.31
2023-05-08T14:50:58.739Z,101735.44
2023-05-08T14:53:26.885Z,101742.00
2023-05-08T14:55:55.209Z,101732.50
2023-05-08T14:58:23.412Z,101739.41
2023-05-08T15:00:51.338Z,101725.47
2023-05-08T15:03:19.673Z,101733.22
2023-05-08T15:05:48.442Z,101735.94
2023-05-08T15:08:17.902Z,101723.44
2023-05-08T15:10:45.959Z,101733.44
2023-05-08T15:13:14.206Z,101727.75
2023-05-08T15:15:42.235Z,101728.56
2023-05-08T15:18:10.197Z,101739.53
2023-05-08T15:20:38.149Z,101733.56
2023-05-08T15:23:06.594Z,101734.44
2023-05-08T15:25:36.484Z,101727.19
2023-05-08T15:28:04.621Z,101735.72
2023-05-08T15:30:32.583Z,101731.31
2023-05-08T15:33:00.646Z,101724.81
2023-05-08T15:35:28.666Z,101738.81
2023-05-08T15:37:56.837Z,101740.28
2023-05-08T15:40:25.185Z,101730.78
2023-05-08T15:42:54.764Z,101728.56
2023-05-08T15:45:22.968Z,101724.84
2023-05-08T15:47:51.345Z,101726.16
2023-05-08T15:50:19.423Z,101730.50
2023-05-08T15:52:47.713Z,101735.81
2023-05-08T15:55:17.581Z,101738.56
2023-05-08T15:57:45.538Z,101724.09
2023-05-08T16:00:15.962Z,101733.66
2023-05-08T16:02:43.907Z,101728.84
2023-05-08T16:05:12.094Z,101723.63
2023-05-08T16:07:40.274Z,101729.56
2023-05-08T16:10:09.914Z,101732.81
2023-05-08T16:12:37.976Z,101729.56
2023-05-08T16:15:07.134Z,101727.66
2023-05-08T16:17:36.500Z,101730.13
2023-05-08T16:20:05.184Z,101716.09
2023-05-08T16:22:33.264Z,101726.56
2023-05-08T16:25:01.272Z,101731.22
2023-05-08T16:27:29.505Z,101723.78
2023-05-08T16:29:57.475Z,101718.81
2023-05-08T16:32:27.139Z,101713.34
2023-05-08T16:34:56.594Z,101724.84
2023-05-08T16:37:24.505Z,101725.06
2023-05-08T16:39:52.587Z,101717.47
2023-05-08T16:42:20.934Z,101726.59
2023-05-08T16:44:48.977Z,101728.91
2023-05-08T16:47:17.044Z,101724.56
2023-05-08T16:49:45.488Z,101718.72
2023-05-08T16:52:17.878Z,101724.19
2023-05-08T16:54:45.784Z,101715.16
2023-05-08T16:57:13.734Z,101720.91
2023-05-08T16:59:42.463Z,101712.88
2023-05-08T17:02:11.952Z,101709.03
2023-05-08T17:04:39.967Z,101720.09
2023-05-08T17:07:08.145Z,101706.25
2023-05-08T17:09:37.416Z,101710.00
2023-05-08T17:12:06.428Z,101701.44
2023-05-08T17:14:37.995Z,101706.88
2023-05-08T17:17:06.137Z,101701.34
2023-05-08T17:19:34.183Z,101695.69
2023-05-08T17:22:02.559Z,101696.16
2023-05-08T17:24:31.010Z,101697.38
2023-05-08T17:27:00.397Z,101691.56
2023-05-08T17:29:28.447Z,101691.94
2023-05-08T17:31:56.439Z,101682.19
2023-05-08T17:34:24.497Z,101676.00
2023-05-08T17:36:54.435Z,101682.31
2023-05-08T17:39:23.120Z,101680.31
2023-05-08T17:41:51.455Z,101679.84
2023-05-08T17:44:22.635Z,101679.84
2023-05-08T17:46:50.990Z,101673.78
2023-05-08T17:49:19.584Z,101665.38
2023-05-08T17:51:47.665Z,101665.91
2023-05-08T17:54:15.674Z,101672.72
2023-05-08T17:56:44.413Z,101681.22
2023-05-08T17:59:12.581Z,101674.84
2023-05-08T18:01:42.285Z,101660.41
2023-05-08T18:04:12.935Z,101662.25
2023-05-08T18:06:43.490Z,101663.09
2023-05-08T18:09:11.619Z,101664.69
2023-05-08T18:11:39.769Z,101662.25
2023-05-08T18:14:07.916Z,101654.47
2023-05-08T18:16:35.925Z,101661.09
2023-05-08T18:19:05.572Z,101655.09
2023-05-08T18:21:34.094Z,101652.19
2023-05-08T18:24:02.410Z,101652.19
2023-05-08T18:26:30.937Z,101649.59
2023-05-08T18:28:59.067Z,101652.75
2023-05-08T18:31:27.434Z,101649.88
2023-05-08T18:33:55.698Z,101644.13
2023-05-08T18:36:25.880Z,101650.38
2023-05-08T18:38:54.323Z,101647.28
2023-05-08T18:41:23.420Z,101640.97
2023-05-08T18:43:51.484Z,101652.72
2023-05-08T18:46:19.490Z,101640.53
2023-05-08T18:48:47.546Z,101641.34
2023-05-08T18:51:15.471Z,101649.75
2023-05-08T18:53:44.799Z,101630.47
2023-05-08T18:56:13.015Z,101640.34
2023-05-08T18:58:41.155Z,101630.06
2023-05-08T19:01:10.460Z,101622.53
2023-05-08T19:03:39.655Z,101633.31
2023-05-08T19:06:07.839Z,101616.38
2023-05-08T19:08:39.786Z,101610.31
2023-05-08T19:11:10.533Z,101603.09
2023-05-08T19:13:43.620Z,101610.22
2023-05-08T19:16:12.946Z,101617.59
2023-05-08T19:18:41.004Z,101615.59
2023-05-08T19:21:10.865Z,101608.56
2023-05-08T19:23:41.706Z,101606.06
2023-05-08T19:26:16.639Z,101598.09
2023-05-08T19:28:47.543Z,101601.03
2023-05-08T19:31:15.987Z,101603.94
2023-05-08T19:33:44.330Z,101611.97
2023-05-08T19:36:12.392Z,101608.31
2023-05-08T19:38:40.612Z,101601.41
2023-05-08T19:41:08.700Z,101609.25
2023-05-08T19:43:38.269Z,101605.31
2023-05-08T19:46:06.358Z,101596.66
2023-05-08T19:48:34.484Z,101599.91
2023-05-08T19:51:07.261Z,101603.47
2023-05-08T19:53:35.414Z,101602.03
2023-05-08T19:56:04.396Z,101605.00
2023-05-08T19:58:33.691Z,101597.03
2023-05-08T20:01:03.809Z,101601.28
2023-05-08T20:03:32.879Z,101603.94
2023-05-08T20:06:01.964Z,101598.03
2023-05-08T20:08:30.168Z,101598.47
2023-05-08T20:11:02.732Z,101594.75
2023-05-08T20:13:31.313Z,101589.66
2023-05-08T20:15:59.552Z,101587.47
2023-05-08T20:18:28.999Z,101586.47
2023-05-08T20:20:56.916Z,101583.44
2023-05-08T20:23:24.874Z,101580.47
2023-05-08T20:25:54.188Z,101583.00
2023-05-08T20:28:25.976Z,101577.78
2023-05-08T20:30:54.211Z,101576.63
2023-05-08T20:33:22.167Z,101576.09
2023-05-08T20:35:51.593Z,101557.97
2023-05-08T20:38:19.685Z,101561.47
2023-05-08T20:40:47.801Z,101559.03
2023-05-08T20:43:16.795Z,101561.38
2023-05-08T20:45:44.824Z,101563.88
2023-05-08T20:48:12.793Z,101561.97
2023-05-08T20:50:40.719Z,101552.78
2023-05-08T20:53:10.062Z,101547.50
2023-05-08T20:55:38.091Z,101547.09
2023-05-08T20:58:07.161Z,101534.66
2023-05-08T21:00:35.315Z,101534.97
2023-05-08T21:03:03.798Z,101537.78
2023-05-08T21:05:31.968Z,101528.22
2023-05-08T21:08:02.542Z,101521.47
2023-05-08T21:10:32.054Z,101520.56
2023-05-08T21:13:00.037Z,101517.88
2023-05-08T21:15:28.140Z,101509.41
2023-05-08T21:17:57.014Z,101508.94
2023-05-08T21:20:25.911Z,101502.25
2023-05-08T21:22:54.436Z,101498.50
2023-05-08T21:25:26.353Z,101494.53
2023-05-08T21:27:56.436Z,101491.78
2023-05-08T21:30:25.024Z,101494.53
2023-05-08T21:32:53.573Z,101483.75
2023-05-08T21:35:22.239Z,101481.94
2023-05-08T21:37:53.945Z,101484.72
2023-05-08T21:40:22.921Z,101476.63
2023-05-08T21:42:51.025Z,101481.78
2023-05-08T21:45:20.421Z,101472.00
2023-05-08T21:47:51.496Z,101479.34
2023-05-08T21:50:19.898Z,101459.47
2023-05-08T21:52:48.241Z,101461.00
2023-05-08T21:55:18.755Z,101455.97
2023-05-08T21:57:46.754Z,101454.53
2023-05-08T22:00:23.873Z,101445.97
2023-05-08T22:02:55.108Z,101440.66
2023-05-08T22:05:24.111Z,101444.91
2023-05-08T22:07:52.261Z,101430.72
2023-05-08T22:10:21.563Z,101435.59
2023-05-08T22:12:49.792Z,101435.72
2023-05-08T22:15:29.255Z,101432.00
2023-05-08T22:18:02.768Z,101424.44
2023-05-08T22:20:31.942Z,101422.06
2023-05-08T22:23:00.209Z,101415.19
2023-05-08T22:25:28.585Z,101408.53
2023-05-08T22:27:56.850Z,101415.47
2023-05-08T22:30:25.285Z,101406.47
2023-05-08T22:32:55.594Z,101399.34
2023-05-08T22:35:26.887Z,101396.31
2023-05-08T22:42:05.362Z,101390.91
2023-05-08T22:44:33.665Z,101381.44
2023-05-08T22:47:02.180Z,101386.78
2023-05-08T22:49:30.622Z,101368.72
2023-05-08T22:52:48.242Z,101371.69
2023-05-08T22:55:17.900Z,101363.25
2023-05-08T22:57:46.134Z,101359.00
2023-05-08T23:00:16.418Z,101361.34
2023-05-08T23:02:44.788Z,101358.63
2023-05-08T23:05:13.163Z,101351.19
2023-05-08T23:07:41.971Z,101355.44
2023-05-08T23:10:10.708Z,101349.38
2023-05-08T23:12:40.076Z,101347.69
2023-05-08T23:15:09.134Z,101342.63
2023-05-08T23:17:37.150Z,101335.50
2023-05-08T23:20:05.980Z,101322.09
2023-05-08T23:22:34.170Z,101323.28
2023-05-08T23:25:02.147Z,101322.25
2023-05-08T23:27:30.145Z,101315.56
2023-05-08T23:29:59.625Z,101312.97
2023-05-08T23:32:27.591Z,101306.91
2023-05-08T23:34:55.812Z,101303.97
2023-05-08T23:37:23.866Z,101300.25
2023-05-08T23:39:51.831Z,101306.06
2023-05-08T23:42:20.442Z,101300.00
2023-05-08T23:44:48.399Z,101293.88
2023-05-08T23:47:19.254Z,101283.78
2023-05-08T23:49:47.337Z,101284.13
2023-05-08T23:52:15.389Z,101282.34
2023-05-08T23:54:43.410Z,101276.72
2023-05-08T23:57:36.732Z,101275.69
